Time;durP1;ratioP1;P1;durP2;ratioP2;P2;SDS_P1;SDS_P2;PMS_P1;PMS_P2;Temp;Humidity;BMP_temperature;BMP_pressure;BME280_temperature;BME280_humidity;BME280_pressure;Samples;Min_cycle;Max_cycle;Signal;HPM_P1;HPM_P2
2021/12/30 00:00:41;;;;;;;28.23;13.07;;;-9.90;99.90;;;;;;5050270;28;20462;-85
2021/12/30 00:03:10;;;;;;;26.52;13.02;;;-9.90;99.90;;;;;;5048466;28;20394;-83
2021/12/30 00:05:39;;;;;;;27.13;13.85;;;-9.90;99.90;;;;;;5051414;28;20477;-83
2021/12/30 00:08:06;;;;;;;27.08;13.13;;;-9.90;99.90;;;;;;5050203;28;20391;-83
2021/12/30 00:10:35;;;;;;;27.20;12.32;;;-9.90;99.90;;;;;;5033428;28;20423;-82
2021/12/30 00:13:03;;;;;;;27.38;12.63;;;-9.90;99.90;;;;;;5031419;28;20447;-84
2021/12/30 00:15:31;;;;;;;27.50;13.53;;;-10.00;99.90;;;;;;5030092;28;20415;-83
2021/12/30 00:18:00;;;;;;;29.85;14.52;;;-10.00;99.90;;;;;;5031449;28;20389;-83
2021/12/30 00:20:28;;;;;;;27.25;12.00;;;-10.00;99.90;;;;;;5014186;28;20421;-83
2021/12/30 00:22:55;;;;;;;27.23;12.90;;;-9.90;99.90;;;;;;5029985;28;20385;-83
2021/12/30 00:25:23;;;;;;;28.15;12.93;;;-10.00;99.90;;;;;;5030285;28;20416;-83
2021/12/30 00:27:51;;;;;;;28.75;14.23;;;-10.20;99.90;;;;;;5029943;28;20386;-83
2021/12/30 00:30:19;;;;;;;28.70;14.73;;;-10.10;99.90;;;;;;5036191;28;20503;-83
2021/12/30 00:32:46;;;;;;;28.20;13.18;;;-10.00;99.90;;;;;;5050183;28;20394;-83
2021/12/30 00:35:14;;;;;;;28.63;14.48;;;-10.10;99.90;;;;;;5051343;28;20463;-83
2021/12/30 00:37:41;;;;;;;29.45;13.68;;;-10.00;99.90;;;;;;5050034;28;20485;-83
2021/12/30 00:40:10;;;;;;;28.67;14.07;;;-9.90;99.90;;;;;;5049522;28;20479;-84
2021/12/30 00:42:38;;;;;;;30.75;14.52;;;-9.90;99.90;;;;;;5051262;28;20384;-84
2021/12/30 00:45:06;;;;;;;30.70;14.00;;;-9.90;99.90;;;;;;5050006;28;20391;-84
2021/12/30 00:47:33;;;;;;;30.10;14.73;;;-9.90;99.90;;;;;;5049863;28;20407;-85
2021/12/30 00:50:01;;;;;;;28.80;13.77;;;-9.90;99.90;;;;;;5036822;28;20392;-83
2021/12/30 00:52:29;;;;;;;29.45;13.80;;;-9.90;99.90;;;;;;5054994;28;20388;-85
2021/12/30 00:54:56;;;;;;;28.10;14.07;;;-10.00;99.90;;;;;;5037132;28;20423;-83
2021/12/30 00:57:24;;;;;;;26.42;12.77;;;-9.90;99.90;;;;;;5054478;28;20435;-83
2021/12/30 00:59:52;;;;;;;31.48;14.43;;;-9.90;99.90;;;;;;5053584;28;20388;-83
2021/12/30 01:02:19;;;;;;;31.13;14.30;;;-9.90;99.90;;;;;;5053332;28;20398;-83
2021/12/30 01:04:47;;;;;;;28.67;14.03;;;-9.90;99.90;;;;;;5036713;28;20412;-83
2021/12/30 01:07:15;;;;;;;28.67;14.43;;;-10.00;99.90;;;;;;5054861;28;20403;-84
2021/12/30 01:09:42;;;;;;;27.67;13.35;;;-10.00;99.90;;;;;;5053457;28;20831;-84
2021/12/30 01:12:10;;;;;;;32.25;15.73;;;-10.00;99.90;;;;;;5054650;28;20395;-85
2021/12/30 01:14:38;;;;;;;33.55;15.63;;;-10.00;99.90;;;;;;5054601;28;20395;-85
2021/12/30 01:17:18;;;;;;;31.98;15.23;;;-9.90;99.90;;;;;;5054354;28;20410;-83
2021/12/30 01:19:46;;;;;;;28.70;15.35;;;-9.90;99.90;;;;;;5053391;28;20881;-83
2021/12/30 01:22:26;;;;;;;31.42;15.13;;;-9.90;99.90;;;;;;5054228;28;20727;-84
2021/12/30 01:24:56;;;;;;;32.67;15.68;;;-9.80;99.90;;;;;;5053021;28;20384;-83
2021/12/30 01:27:26;;;;;;;31.10;15.30;;;-9.90;99.90;;;;;;5052738;28;20491;-83
2021/12/30 01:29:54;;;;;;;31.15;15.52;;;-9.90;99.90;;;;;;5051982;28;20494;-85
2021/12/30 01:32:22;;;;;;;31.25;15.68;;;-9.80;99.90;;;;;;5036046;28;20501;-83
2021/12/30 01:34:49;;;;;;;33.40;16.17;;;-9.80;99.90;;;;;;5032986;28;20397;-85
2021/12/30 01:37:20;;;;;;;35.20;16.45;;;-9.80;99.90;;;;;;5033818;28;20404;-83
2021/12/30 01:39:48;;;;;;;30.95;15.25;;;-9.80;99.90;;;;;;5033806;28;20491;-83
2021/12/30 01:42:16;;;;;;;29.02;15.10;;;-9.70;99.90;;;;;;5033816;28;20911;-84
2021/12/30 01:44:43;;;;;;;30.92;15.75;;;-9.80;99.90;;;;;;5035661;28;20491;-83
2021/12/30 01:47:11;;;;;;;32.17;15.52;;;-9.70;99.90;;;;;;5032506;28;20408;-83
2021/12/30 01:49:39;;;;;;;30.65;14.32;;;-9.80;99.90;;;;;;5033721;28;20393;-83
2021/12/30 01:52:06;;;;;;;32.45;16.23;;;-9.80;99.90;;;;;;5033720;28;20396;-84
2021/12/30 01:54:34;;;;;;;32.45;15.38;;;-10.00;99.90;;;;;;5032454;28;20888;-82
2021/12/30 01:57:05;;;;;;;33.50;15.93;;;-10.10;99.90;;;;;;5032226;28;20488;-85
2021/12/30 01:59:32;;;;;;;30.48;15.10;;;-10.10;99.90;;;;;;5031932;28;20891;-85
2021/12/30 02:02:01;;;;;;;30.87;15.23;;;-10.10;99.90;;;;;;5032038;28;20455;-84
2021/12/30 02:04:33;;;;;;;33.30;16.17;;;-10.10;99.90;;;;;;5032142;28;20389;-84
2021/12/30 02:07:01;;;;;;;30.70;14.52;;;-10.10;99.90;;;;;;5032287;28;20390;-85
2021/12/30 02:09:30;;;;;;;32.75;15.48;;;-10.10;99.90;;;;;;5033429;28;20389;-84
2021/12/30 02:12:00;;;;;;;30.20;14.65;;;-10.10;99.90;;;;;;5033430;28;20385;-84
2021/12/30 02:14:33;;;;;;;33.30;16.70;;;-10.00;99.90;;;;;;5032091;28;20463;-85
2021/12/30 02:17:03;;;;;;;32.28;16.08;;;-10.00;99.90;;;;;;5033420;28;20495;-85
2021/12/30 02:19:31;;;;;;;32.88;16.38;;;-10.00;99.90;;;;;;5015827;28;20398;-85
2021/12/30 02:21:58;;;;;;;33.65;16.30;;;-10.00;99.90;;;;;;5033214;28;20386;-84
2021/12/30 02:24:27;;;;;;;35.17;17.70;;;-9.90;99.90;;;;;;5031894;28;20414;-84
2021/12/30 02:26:55;;;;;;;32.63;16.50;;;-9.80;99.90;;;;;;5048572;28;20435;-84
2021/12/30 02:29:22;;;;;;;35.22;17.58;;;-9.80;99.90;;;;;;5032938;28;20484;-85
2021/12/30 02:31:51;;;;;;;33.30;15.77;;;-9.70;99.90;;;;;;5031427;28;20412;-84
2021/12/30 02:34:19;;;;;;;34.17;16.40;;;-9.70;99.90;;;;;;5031867;28;20405;-85
2021/12/30 02:36:48;;;;;;;35.38;17.80;;;-9.70;99.90;;;;;;5031612;28;20455;-85
2021/12/30 02:39:18;;;;;;;32.38;16.45;;;-9.70;99.90;;;;;;5015514;28;20407;-84
2021/12/30 02:41:47;;;;;;;34.65;16.52;;;-9.60;99.90;;;;;;5032889;28;20411;-84
2021/12/30 02:44:14;;;;;;;32.97;16.60;;;-9.50;99.90;;;;;;5031342;28;20443;-84
2021/12/30 02:46:42;;;;;;;34.72;17.30;;;-9.60;99.90;;;;;;5031600;28;20389;-86
2021/12/30 02:49:12;;;;;;;35.30;17.60;;;-9.60;99.90;;;;;;5032748;28;20860;-85
2021/12/30 02:51:39;;;;;;;32.10;16.20;;;-9.70;99.90;;;;;;5031484;28;20489;-85
2021/12/30 02:54:07;;;;;;;32.70;16.42;;;-9.70;99.90;;;;;;5031641;28;20468;-85
2021/12/30 02:56:35;;;;;;;31.98;15.98;;;-9.80;99.90;;;;;;5031344;28;20916;-85
2021/12/30 02:59:04;;;;;;;33.40;17.10;;;-9.80;99.90;;;;;;5032449;28;20394;-84
2021/12/30 03:01:33;;;;;;;33.53;16.08;;;-9.70;99.90;;;;;;5031183;28;20410;-84
2021/12/30 03:04:05;;;;;;;35.80;17.67;;;-9.70;99.90;;;;;;5031468;28;20385;-85
2021/12/30 03:06:33;;;;;;;30.93;15.93;;;-9.70;99.90;;;;;;5031242;28;20400;-85
2021/12/30 03:09:01;;;;;;;33.37;16.80;;;-9.70;99.90;;;;;;5031270;28;20392;-86
2021/12/30 03:11:29;;;;;;;33.45;16.35;;;-9.70;99.90;;;;;;5030729;28;20829;-84
2021/12/30 03:13:58;;;;;;;32.45;16.77;;;-9.70;99.90;;;;;;5014961;28;20393;-86
2021/12/30 03:16:32;;;;;;;34.38;16.55;;;-9.70;99.90;;;;;;5031168;28;20397;-84
2021/12/30 03:19:00;;;;;;;35.05;17.38;;;-9.70;99.90;;;;;;5030805;28;20389;-85
2021/12/30 03:21:28;;;;;;;34.25;16.85;;;-9.70;99.90;;;;;;5030915;28;20402;-85
2021/12/30 03:23:59;;;;;;;36.53;18.73;;;-9.50;99.90;;;;;;5030692;28;20396;-85
2021/12/30 03:26:27;;;;;;;34.55;17.65;;;-9.50;99.90;;;;;;5014479;28;20768;-85
2021/12/30 03:28:55;;;;;;;33.10;17.23;;;-9.50;99.90;;;;;;5030714;28;20389;-84
2021/12/30 03:31:23;;;;;;;36.55;17.95;;;-9.50;99.90;;;;;;5031859;28;20393;-84
2021/12/30 03:33:51;;;;;;;32.60;16.98;;;-9.40;99.90;;;;;;5014389;28;20424;-84
2021/12/30 03:36:20;;;;;;;34.05;16.95;;;-9.40;99.90;;;;;;5031693;28;20925;-85
2021/12/30 03:38:50;;;;;;;36.28;18.38;;;-9.30;99.90;;;;;;5030597;28;20407;-84
2021/12/30 03:41:21;;;;;;;33.08;17.77;;;-9.30;99.90;;;;;;5030444;28;20394;-85
2021/12/30 03:43:50;;;;;;;33.05;16.67;;;-9.30;99.90;;;;;;5049077;28;20407;-84
2021/12/30 03:46:18;;;;;;;37.50;18.25;;;-9.40;99.90;;;;;;5018694;28;20684;-85
2021/12/30 03:48:46;;;;;;;33.45;17.23;;;-9.30;99.90;;;;;;5035995;28;20443;-84
2021/12/30 03:51:24;;;;;;;34.70;16.90;;;-9.30;99.90;;;;;;5030449;28;20397;-84
2021/12/30 03:53:56;;;;;;;32.88;17.05;;;-9.40;99.90;;;;;;5030403;28;20772;-84
2021/12/30 03:56:28;;;;;;;35.10;18.50;;;-9.40;99.90;;;;;;5036034;28;20479;-84
2021/12/30 03:58:58;;;;;;;33.65;17.05;;;-9.30;99.90;;;;;;5031134;28;20396;-84
2021/12/30 04:01:27;;;;;;;35.67;17.67;;;-9.30;99.90;;;;;;5030501;28;20480;-86
2021/12/30 04:03:56;;;;;;;34.77;18.40;;;-9.30;99.90;;;;;;5049680;28;20398;-84
2021/12/30 04:06:25;;;;;;;33.90;17.10;;;-9.30;99.90;;;;;;5042773;28;20390;-84
2021/12/30 04:08:54;;;;;;;34.65;17.48;;;-9.40;99.90;;;;;;5033696;28;20396;-85
2021/12/30 04:11:34;;;;;;;31.80;15.60;;;-9.50;99.90;;;;;;5041630;28;20381;-85
2021/12/30 04:14:04;;;;;;;37.97;18.73;;;-9.50;99.90;;;;;;5043913;28;20396;-86
2021/12/30 04:16:32;;;;;;;32.83;16.33;;;-9.40;99.90;;;;;;5036324;28;20489;-85
2021/12/30 04:19:01;;;;;;;32.38;16.63;;;-9.40;99.90;;;;;;5042100;28;20526;-85
2021/12/30 04:21:28;;;;;;;37.47;18.23;;;-9.40;99.90;;;;;;5029062;28;20384;-84
2021/12/30 04:23:56;;;;;;;31.50;16.67;;;-9.30;99.90;;;;;;5051800;28;20474;-84
2021/12/30 04:26:27;;;;;;;31.80;16.65;;;-9.30;99.90;;;;;;5038082;28;20388;-85
2021/12/30 04:28:56;;;;;;;32.63;16.67;;;-9.30;99.90;;;;;;5054159;28;20379;-84
2021/12/30 04:31:24;;;;;;;34.72;17.95;;;-9.30;99.90;;;;;;5037227;28;20416;-84
2021/12/30 04:33:52;;;;;;;30.13;15.68;;;-9.10;99.90;;;;;;5055367;28;20929;-85
2021/12/30 04:36:20;;;;;;;33.63;16.58;;;-9.30;99.90;;;;;;5037269;28;20801;-83
2021/12/30 04:38:47;;;;;;;37.10;18.80;;;-9.30;99.90;;;;;;5055238;28;20395;-87
2021/12/30 04:41:15;;;;;;;35.55;17.90;;;-9.30;99.90;;;;;;5055036;28;20392;-85
2021/12/30 04:43:43;;;;;;;34.08;18.38;;;-9.20;99.90;;;;;;5047735;28;20407;-84
2021/12/30 04:46:11;;;;;;;37.75;20.15;;;-9.30;99.90;;;;;;5060175;28;20422;-85
2021/12/30 04:48:38;;;;;;;33.10;17.70;;;-9.10;99.90;;;;;;5073684;28;20392;-86
2021/12/30 04:51:06;;;;;;;34.60;18.87;;;-9.10;99.90;;;;;;5061891;28;20487;-85
2021/12/30 04:53:34;;;;;;;36.03;19.60;;;-9.00;99.90;;;;;;5053751;28;20387;-86
2021/12/30 04:56:02;;;;;;;33.70;17.30;;;-8.90;99.90;;;;;;5054810;28;20415;-86
2021/12/30 04:58:29;;;;;;;32.95;16.80;;;-8.90;99.90;;;;;;5053291;28;20932;-85
2021/12/30 05:00:57;;;;;;;37.13;18.92;;;-9.00;99.90;;;;;;5053354;28;20388;-85
2021/12/30 05:03:26;;;;;;;35.93;18.50;;;-9.00;99.90;;;;;;5054569;28;20789;-85
2021/12/30 05:05:55;;;;;;;37.70;18.57;;;-9.00;99.90;;;;;;5053535;28;20956;-85
2021/12/30 05:08:26;;;;;;;37.20;17.98;;;-8.90;99.90;;;;;;5054747;28;20388;-84
2021/12/30 05:10:53;;;;;;;32.50;16.83;;;-8.90;99.90;;;;;;5054592;28;20388;-87
2021/12/30 05:13:21;;;;;;;36.95;19.65;;;-8.90;99.90;;;;;;5049568;28;20444;-85
2021/12/30 05:15:49;;;;;;;37.47;19.33;;;-8.90;99.90;;;;;;5034425;28;20537;-85
2021/12/30 05:18:18;;;;;;;35.88;18.45;;;-8.90;99.90;;;;;;5033475;28;20433;-85
2021/12/30 05:20:46;;;;;;;34.67;18.13;;;-8.90;99.90;;;;;;5032968;28;20404;-85
2021/12/30 05:23:14;;;;;;;35.47;18.27;;;-8.80;99.90;;;;;;5033538;28;20409;-85
2021/12/30 05:25:41;;;;;;;34.92;18.98;;;-8.90;99.90;;;;;;5046350;28;20816;-85
2021/12/30 05:28:09;;;;;;;36.22;18.48;;;-8.90;99.90;;;;;;5019631;28;20473;-84
2021/12/30 05:30:37;;;;;;;35.47;18.90;;;-9.00;99.90;;;;;;5033526;28;20484;-86
2021/12/30 05:33:05;;;;;;;36.25;19.33;;;-9.00;99.90;;;;;;5016816;28;20412;-85
2021/12/30 05:35:33;;;;;;;33.27;18.20;;;-8.90;99.90;;;;;;5032670;28;20896;-86
2021/12/30 05:38:02;;;;;;;35.75;19.65;;;-8.90;99.90;;;;;;5032871;28;20493;-85
2021/12/30 05:40:31;;;;;;;35.65;18.98;;;-8.90;99.90;;;;;;5032725;28;20416;-85
2021/12/30 05:42:59;;;;;;;36.05;19.15;;;-8.80;99.90;;;;;;5033052;28;20386;-85
2021/12/30 05:45:27;;;;;;;35.15;19.23;;;-8.80;99.90;;;;;;5032701;28;20390;-85
2021/12/30 05:47:55;;;;;;;37.67;18.30;;;-8.80;99.90;;;;;;5033892;28;20909;-85
2021/12/30 05:50:26;;;;;;;33.17;16.80;;;-8.90;99.90;;;;;;5044938;28;20392;-85
2021/12/30 05:52:54;;;;;;;36.75;19.27;;;-9.00;99.90;;;;;;5052552;28;20838;-85
2021/12/30 05:55:22;;;;;;;35.50;18.13;;;-9.10;99.90;;;;;;5035883;28;20392;-85
2021/12/30 05:57:52;;;;;;;34.03;17.50;;;-9.10;99.90;;;;;;5052342;28;20889;-85
2021/12/30 06:00:21;;;;;;;34.60;17.73;;;-9.20;99.90;;;;;;5052327;28;20392;-85
2021/12/30 06:02:48;;;;;;;35.17;18.65;;;-9.20;99.90;;;;;;5052325;28;20384;-84
2021/12/30 06:05:16;;;;;;;34.25;17.85;;;-9.20;99.90;;;;;;5051998;28;20384;-85
2021/12/30 06:07:45;;;;;;;37.28;19.75;;;-9.20;99.90;;;;;;5052169;28;20394;-85
2021/12/30 06:10:12;;;;;;;35.25;18.00;;;-9.00;99.90;;;;;;5052284;28;20904;-85
2021/12/30 06:12:43;;;;;;;37.07;20.67;;;-9.00;99.90;;;;;;5035526;28;20399;-85
2021/12/30 06:15:11;;;;;;;39.93;20.60;;;-9.00;99.90;;;;;;5053311;28;20423;-85
2021/12/30 06:17:39;;;;;;;35.45;19.17;;;-8.90;99.90;;;;;;5052141;28;20969;-85
2021/12/30 06:20:10;;;;;;;36.95;19.48;;;-8.80;99.90;;;;;;5035498;28;20483;-85
2021/12/30 06:22:37;;;;;;;39.13;20.58;;;-8.80;99.90;;;;;;5050280;28;20407;-85
2021/12/30 06:25:06;;;;;;;36.13;19.08;;;-8.70;99.90;;;;;;5044662;28;20387;-83
2021/12/30 06:27:33;;;;;;;35.83;18.10;;;-8.80;99.90;;;;;;5052954;28;20396;-83
2021/12/30 06:30:02;;;;;;;34.17;17.35;;;-8.70;99.90;;;;;;5035159;28;20916;-84
2021/12/30 06:32:30;;;;;;;40.80;21.65;;;-8.80;99.90;;;;;;5052878;28;20431;-84
2021/12/30 06:34:57;;;;;;;37.80;19.70;;;-8.80;99.90;;;;;;5042326;28;20393;-83
2021/12/30 06:37:25;;;;;;;40.03;21.05;;;-8.80;99.90;;;;;;5032810;28;20411;-84
2021/12/30 06:39:53;;;;;;;35.83;19.40;;;-8.70;99.90;;;;;;5031711;28;20390;-84
2021/12/30 06:42:20;;;;;;;37.63;20.00;;;-8.90;99.90;;;;;;5031805;28;20393;-83
2021/12/30 06:44:48;;;;;;;37.80;20.63;;;-8.90;99.90;;;;;;5031482;28;20926;-82
2021/12/30 06:47:16;;;;;;;35.13;18.40;;;-8.90;99.90;;;;;;5032217;28;20416;-83
2021/12/30 06:49:43;;;;;;;40.97;20.85;;;-8.80;99.90;;;;;;5032648;28;20481;-84
2021/12/30 06:52:12;;;;;;;37.05;20.20;;;-8.80;99.90;;;;;;5031832;28;20389;-83
2021/12/30 06:54:40;;;;;;;35.60;18.23;;;-8.90;99.90;;;;;;5031263;28;20473;-82
2021/12/30 06:57:12;;;;;;;38.07;20.13;;;-8.90;99.90;;;;;;5031220;28;20396;-83
2021/12/30 06:59:39;;;;;;;38.55;19.73;;;-8.90;99.90;;;;;;5032547;28;20394;-84
2021/12/30 07:02:08;;;;;;;39.13;20.52;;;-8.80;99.90;;;;;;5031339;28;20424;-84
2021/12/30 07:04:36;;;;;;;36.28;19.70;;;-8.80;99.90;;;;;;5032395;28;20400;-84
2021/12/30 07:07:03;;;;;;;36.80;19.37;;;-8.80;99.90;;;;;;5032405;28;20413;-84
2021/12/30 07:09:32;;;;;;;38.90;20.63;;;-8.70;99.90;;;;;;5032252;28;20484;-83
2021/12/30 07:11:59;;;;;;;37.83;19.60;;;-8.70;99.90;;;;;;5031184;28;20389;-84
2021/12/30 07:14:29;;;;;;;35.60;19.83;;;-8.60;99.90;;;;;;5047469;28;20880;-84
2021/12/30 07:16:56;;;;;;;35.17;19.52;;;-8.60;99.90;;;;;;5030958;28;20389;-83
2021/12/30 07:19:24;;;;;;;36.50;19.50;;;-8.60;99.90;;;;;;5032008;28;20807;-84
2021/12/30 07:21:52;;;;;;;36.72;19.88;;;-8.60;99.90;;;;;;5031072;28;20488;-83
2021/12/30 07:24:21;;;;;;;33.25;18.30;;;-8.60;99.90;;;;;;5030724;28;20397;-83
2021/12/30 07:26:50;;;;;;;38.47;21.13;;;-8.70;99.90;;;;;;5032088;28;20409;-83
2021/12/30 07:29:19;;;;;;;39.55;20.23;;;-8.70;99.90;;;;;;5033422;28;20410;-84
2021/12/30 07:31:48;;;;;;;38.25;19.33;;;-8.60;99.90;;;;;;5035181;28;20918;-84
2021/12/30 07:34:16;;;;;;;35.30;18.45;;;-8.70;99.90;;;;;;5032558;28;20393;-83
2021/12/30 07:36:44;;;;;;;38.33;20.92;;;-8.70;99.90;;;;;;5051995;28;20398;-84
2021/12/30 07:39:12;;;;;;;35.10;19.90;;;-8.70;99.90;;;;;;5050458;28;20486;-83
2021/12/30 07:41:47;;;;;;;35.25;19.30;;;-8.70;99.90;;;;;;5050471;28;20423;-83
2021/12/30 07:44:15;;;;;;;38.42;19.35;;;-8.70;99.90;;;;;;5054821;28;20799;-83
2021/12/30 07:46:43;;;;;;;39.75;20.33;;;-8.70;99.90;;;;;;5071639;28;20917;-83
2021/12/30 07:49:11;;;;;;;38.53;20.58;;;-8.80;99.90;;;;;;5057760;28;20419;-84
2021/12/30 07:51:39;;;;;;;36.90;18.92;;;-8.70;99.90;;;;;;5034303;28;20388;-83
2021/12/30 07:54:06;;;;;;;34.88;19.00;;;-8.70;99.90;;;;;;5033756;28;20395;-83
2021/12/30 07:56:34;;;;;;;36.77;19.27;;;-8.70;99.90;;;;;;5051359;28;20388;-83
2021/12/30 07:59:02;;;;;;;37.78;19.90;;;-8.70;99.90;;;;;;5046054;28;20423;-84
2021/12/30 08:01:30;;;;;;;36.17;19.15;;;-8.70;99.90;;;;;;5063191;28;20753;-84
2021/12/30 08:03:57;;;;;;;36.33;18.87;;;-8.70;99.90;;;;;;5061510;28;20386;-84
2021/12/30 08:06:28;;;;;;;37.95;20.88;;;-8.80;99.90;;;;;;5059830;28;20432;-84
2021/12/30 08:08:56;;;;;;;38.60;19.88;;;-8.70;99.90;;;;;;5071591;28;20382;-84
2021/12/30 08:11:24;;;;;;;34.45;18.80;;;-8.70;99.90;;;;;;5071372;28;20394;-82
2021/12/30 08:13:52;;;;;;;37.30;19.38;;;-8.70;99.90;;;;;;5049814;28;20495;-84
2021/12/30 08:16:20;;;;;;;34.22;17.70;;;-8.70;99.90;;;;;;5053478;28;20426;-84
2021/12/30 08:18:48;;;;;;;35.90;19.58;;;-8.70;99.90;;;;;;5069935;28;20516;-84
2021/12/30 08:21:15;;;;;;;36.72;19.45;;;-8.70;99.90;;;;;;5071453;28;20382;-84
2021/12/30 08:23:43;;;;;;;35.60;19.33;;;-8.70;99.90;;;;;;5070124;28;20438;-83
2021/12/30 08:26:11;;;;;;;37.05;19.17;;;-8.70;99.90;;;;;;5055795;28;20944;-84
2021/12/30 08:28:38;;;;;;;37.72;20.27;;;-8.70;99.90;;;;;;5043971;28;20414;-84
2021/12/30 08:31:07;;;;;;;36.42;19.13;;;-8.70;99.90;;;;;;5028412;28;20725;-84
2021/12/30 08:33:35;;;;;;;36.10;21.02;;;-8.60;99.90;;;;;;5038363;28;20417;-85
2021/12/30 08:36:03;;;;;;;36.00;20.10;;;-8.60;99.90;;;;;;5035849;28;20437;-85
2021/12/30 08:38:32;;;;;;;38.42;20.58;;;-8.60;99.90;;;;;;5040313;28;20435;-85
2021/12/30 08:41:01;;;;;;;37.50;20.20;;;-8.60;99.90;;;;;;5039917;28;20421;-84
2021/12/30 08:43:29;;;;;;;35.47;19.20;;;-8.60;99.90;;;;;;5029587;28;20448;-86
2021/12/30 08:45:57;;;;;;;32.33;18.05;;;-8.60;99.90;;;;;;5031480;28;20496;-83
2021/12/30 08:48:25;;;;;;;34.30;19.20;;;-8.60;99.90;;;;;;5060803;28;20403;-84
2021/12/30 08:50:52;;;;;;;38.10;20.47;;;-8.60;99.90;;;;;;5050671;28;20900;-84
2021/12/30 08:53:22;;;;;;;36.97;20.08;;;-8.50;99.90;;;;;;5049767;28;20789;-83
2021/12/30 08:55:49;;;;;;;38.55;18.98;;;-8.50;99.90;;;;;;5032417;28;20895;-83
2021/12/30 08:58:17;;;;;;;37.05;20.17;;;-8.50;99.90;;;;;;5029805;28;20433;-84
2021/12/30 09:00:47;;;;;;;42.75;26.73;;;-8.50;99.90;;;;;;5033367;28;20406;-83
2021/12/30 09:03:17;;;;;;;218.38;115.53;;;-8.50;99.90;;;;;;5064071;28;20522;-84
2021/12/30 09:05:45;;;;;;;97.80;57.60;;;-8.50;99.90;;;;;;5040357;28;20467;-84
2021/12/30 09:08:12;;;;;;;44.13;26.23;;;-8.50;99.90;;;;;;5060065;28;20478;-83
2021/12/30 09:10:45;;;;;;;44.88;27.83;;;-8.50;99.90;;;;;;5046205;28;20427;-84
2021/12/30 09:13:15;;;;;;;39.78;21.95;;;-8.40;99.90;;;;;;5053389;28;20396;-84
2021/12/30 09:15:43;;;;;;;36.80;19.55;;;-8.40;99.90;;;;;;5061623;28;20471;-85
2021/12/30 09:18:11;;;;;;;37.20;20.98;;;-8.40;99.90;;;;;;5036355;28;20934;-84
2021/12/30 09:20:41;;;;;;;39.20;23.80;;;-8.40;99.90;;;;;;5056848;28;20478;-84
2021/12/30 09:23:11;;;;;;;37.03;20.88;;;-8.40;99.90;;;;;;5073575;28;20413;-83
2021/12/30 09:25:39;;;;;;;37.50;20.77;;;-8.40;99.90;;;;;;5074344;28;20390;-83
2021/12/30 09:28:11;;;;;;;45.22;27.13;;;-8.40;99.90;;;;;;5074314;28;20390;-84
2021/12/30 09:30:45;;;;;;;41.38;24.55;;;-8.40;99.90;;;;;;5055547;28;20391;-84
2021/12/30 09:33:15;;;;;;;39.80;21.67;;;-8.30;99.90;;;;;;5054375;28;20400;-84
2021/12/30 09:35:47;;;;;;;41.47;23.98;;;-8.40;99.90;;;;;;5053193;28;20392;-85
2021/12/30 09:38:18;;;;;;;35.35;19.55;;;-8.30;99.90;;;;;;5052820;28;20479;-86
2021/12/30 09:40:46;;;;;;;40.00;22.88;;;-8.30;99.90;;;;;;5054007;28;20897;-83
2021/12/30 09:43:14;;;;;;;40.78;22.70;;;-8.30;99.90;;;;;;5052193;28;20388;-82
2021/12/30 09:45:42;;;;;;;36.58;21.17;;;-8.20;99.90;;;;;;5053018;28;20384;-84
2021/12/30 09:48:13;;;;;;;36.72;20.25;;;-8.30;99.90;;;;;;5052746;28;20463;-84
2021/12/30 09:50:47;;;;;;;38.13;20.00;;;-8.30;99.90;;;;;;5048888;28;20423;-83
2021/12/30 09:53:19;;;;;;;38.38;21.15;;;-8.30;99.90;;;;;;5046081;28;20422;-85
2021/12/30 09:55:47;;;;;;;39.28;21.25;;;-8.30;99.90;;;;;;5052824;28;20490;-85
2021/12/30 09:58:16;;;;;;;43.35;23.80;;;-8.40;99.90;;;;;;5052286;28;20438;-85
2021/12/30 10:00:43;;;;;;;35.50;20.33;;;-8.30;99.90;;;;;;5053517;28;20411;-84
2021/12/30 10:03:11;;;;;;;40.72;21.23;;;-8.40;99.90;;;;;;5052700;28;20467;-85
2021/12/30 10:05:40;;;;;;;38.83;20.37;;;-8.30;99.90;;;;;;5052439;28;20384;-84
2021/12/30 10:08:18;;;;;;;42.28;23.50;;;-8.30;99.90;;;;;;5052200;28;20408;-84
2021/12/30 10:10:57;;;;;;;41.92;23.23;;;-8.30;99.90;;;;;;5052227;28;20486;-85
2021/12/30 10:13:30;;;;;;;42.15;22.33;;;-8.20;99.90;;;;;;5053359;28;20881;-84
2021/12/30 10:16:04;;;;;;;38.95;21.63;;;-8.30;99.90;;;;;;5050081;28;20402;-85
2021/12/30 10:18:45;;;;;;;39.75;21.35;;;-8.30;99.90;;;;;;5041111;28;20413;-84
2021/12/30 10:21:15;;;;;;;38.72;20.85;;;-8.20;99.90;;;;;;5030982;28;20451;-83
2021/12/30 10:23:55;;;;;;;40.08;22.77;;;-8.20;99.90;;;;;;5032163;28;20389;-85
2021/12/30 10:26:24;;;;;;;39.05;22.10;;;-8.20;99.90;;;;;;5033694;28;20740;-84
2021/12/30 10:29:04;;;;;;;43.97;24.05;;;-8.20;99.90;;;;;;5049504;28;20893;-85
2021/12/30 10:31:33;;;;;;;44.20;24.10;;;-8.20;99.90;;;;;;5051518;28;20388;-83
2021/12/30 10:34:04;;;;;;;40.08;22.45;;;-8.20;99.90;;;;;;5053118;28;20396;-85
2021/12/30 10:36:35;;;;;;;43.03;24.05;;;-8.10;99.90;;;;;;5051796;28;20906;-85
2021/12/30 10:39:20;;;;;;;39.93;21.60;;;-8.20;99.90;;;;;;5051753;28;20430;-85
2021/12/30 10:42:16;;;;;;;41.55;22.65;;;-8.10;99.90;;;;;;5034111;28;20424;-84
2021/12/30 10:44:54;;;;;;;41.43;22.17;;;-8.20;99.90;;;;;;5032163;28;20392;-84
2021/12/30 10:47:26;;;;;;;47.67;27.13;;;-8.20;99.90;;;;;;5031424;28;20768;-85
2021/12/30 10:49:59;;;;;;;51.17;27.10;;;-8.10;99.90;;;;;;5036139;28;20416;-84
2021/12/30 10:52:27;;;;;;;46.55;25.58;;;-8.10;99.90;;;;;;5041338;28;20484;-86
2021/12/30 10:54:56;;;;;;;44.60;23.95;;;-8.00;99.90;;;;;;5022591;28;20432;-85
2021/12/30 10:57:30;;;;;;;42.58;22.45;;;-8.10;99.90;;;;;;5038669;28;20403;-85
2021/12/30 11:00:00;;;;;;;47.83;25.48;;;-8.10;99.90;;;;;;5066033;28;20471;-85
2021/12/30 11:02:29;;;;;;;47.95;26.70;;;-8.10;99.90;;;;;;5051602;28;20388;-85
2021/12/30 11:05:05;;;;;;;50.17;29.75;;;-8.10;99.90;;;;;;5052508;28;20388;-83
2021/12/30 11:07:42;;;;;;;47.75;25.80;;;-8.10;99.90;;;;;;5046898;28;20408;-84
2021/12/30 11:10:11;;;;;;;45.97;25.15;;;-8.10;99.90;;;;;;5057440;28;20388;-84
2021/12/30 11:12:45;;;;;;;50.07;25.87;;;-8.10;99.90;;;;;;5034873;28;20384;-84
2021/12/30 11:15:32;;;;;;;47.30;24.92;;;-8.00;99.90;;;;;;5051057;28;20396;-84
2021/12/30 11:18:18;;;;;;;48.20;24.60;;;-8.00;99.90;;;;;;5051052;28;20457;-83
2021/12/30 11:20:48;;;;;;;45.35;24.40;;;-8.00;99.90;;;;;;5050911;28;20416;-84
2021/12/30 11:23:17;;;;;;;48.25;27.08;;;-8.00;99.90;;;;;;5049572;28;20952;-84
2021/12/30 11:25:46;;;;;;;48.58;24.88;;;-8.00;99.90;;;;;;5050970;28;20391;-84
2021/12/30 11:28:14;;;;;;;49.28;26.27;;;-8.10;99.90;;;;;;5051030;28;20388;-84
2021/12/30 11:30:42;;;;;;;48.97;26.48;;;-8.00;99.90;;;;;;5047600;28;20393;-84
2021/12/30 11:33:10;;;;;;;47.47;24.35;;;-8.00;99.90;;;;;;5046017;28;20483;-85
2021/12/30 11:35:38;;;;;;;47.67;24.65;;;-8.00;99.90;;;;;;5038736;28;20405;-85
2021/12/30 11:38:05;;;;;;;46.35;22.85;;;-7.90;99.90;;;;;;5035076;28;20385;-86
2021/12/30 11:40:33;;;;;;;49.00;25.13;;;-8.00;99.90;;;;;;5014383;28;20758;-85
2021/12/30 11:43:12;;;;;;;46.85;23.75;;;-7.90;99.90;;;;;;5066278;28;20378;-86
2021/12/30 11:45:44;;;;;;;49.83;26.45;;;-7.80;99.90;;;;;;5058659;28;20443;-83
2021/12/30 11:48:30;;;;;;;48.50;27.73;;;-7.90;99.90;;;;;;5043892;28;20388;-84
2021/12/30 11:51:07;;;;;;;48.13;24.02;;;-7.90;99.90;;;;;;5051936;28;20387;-84
2021/12/30 11:53:35;;;;;;;53.17;26.92;;;-7.90;99.90;;;;;;5050525;28;20398;-84
2021/12/30 11:56:18;;;;;;;49.47;26.15;;;-7.90;99.90;;;;;;5043910;28;20398;-84
2021/12/30 11:58:49;;;;;;;52.17;28.48;;;-7.80;99.90;;;;;;5033476;28;20816;-85
2021/12/30 12:01:21;;;;;;;50.00;25.08;;;-7.80;99.90;;;;;;5032999;28;20408;-84
2021/12/30 12:03:57;;;;;;;49.03;26.05;;;-7.80;99.90;;;;;;5043578;28;20380;-84
2021/12/30 12:06:42;;;;;;;52.35;26.38;;;-7.80;99.90;;;;;;5051731;28;20750;-84
2021/12/30 12:09:20;;;;;;;50.95;28.35;;;-7.80;99.90;;;;;;5050459;28;20415;-84
2021/12/30 12:11:51;;;;;;;51.70;27.37;;;-7.80;99.90;;;;;;5046164;28;20393;-84
2021/12/30 12:14:31;;;;;;;50.10;26.58;;;-7.80;99.90;;;;;;5030751;28;20429;-84
2021/12/30 12:17:02;;;;;;;48.80;24.88;;;-7.80;99.90;;;;;;5030445;28;20460;-84
2021/12/30 12:19:48;;;;;;;46.65;24.13;;;-7.80;99.90;;;;;;5030089;28;20784;-84
2021/12/30 12:22:19;;;;;;;49.53;25.90;;;-7.80;99.90;;;;;;5030087;28;20394;-83
2021/12/30 12:25:04;;;;;;;46.15;23.73;;;-7.80;99.90;;;;;;5030467;28;20389;-84
2021/12/30 12:27:34;;;;;;;50.05;26.67;;;-7.80;99.90;;;;;;5038916;28;20450;-83
2021/12/30 12:30:06;;;;;;;45.83;24.40;;;-7.80;99.90;;;;;;5040995;28;20401;-84
2021/12/30 12:32:36;;;;;;;49.13;27.38;;;-7.70;99.90;;;;;;5028471;28;20842;-84
2021/12/30 12:35:30;;;;;;;50.13;26.05;;;-7.70;99.90;;;;;;5045257;28;20407;-83
2021/12/30 12:38:03;;;;;;;44.33;22.63;;;-7.70;99.90;;;;;;5043282;28;20918;-85